sensor_id;sensor_type;location;lat;lon;timestamp;P1;durP1;ratioP1;P2;durP2;ratioP2
29026;SDS011;16120;48.608;9.092;2023-02-15T00:03:42;88.97;;;16.57;;
29026;SDS011;16120;48.608;9.092;2023-02-15T00:07:37;87.85;;;16.30;;
29026;SDS011;16120;48.608;9.092;2023-02-15T00:11:32;88.68;;;15.30;;
29026;SDS011;16120;48.608;9.092;2023-02-15T00:15:29;81.50;;;13.93;;
29026;SDS011;16120;48.608;9.092;2023-02-15T00:19:24;80.90;;;14.97;;
29026;SDS011;16120;48.608;9.092;2023-02-15T00:23:19;82.53;;;14.40;;
29026;SDS011;16120;48.608;9.092;2023-02-15T00:27:14;83.60;;;14.40;;
29026;SDS011;16120;48.608;9.092;2023-02-15T00:31:11;82.00;;;15.03;;
29026;SDS011;16120;48.608;9.092;2023-02-15T00:35:06;85.70;;;16.70;;
29026;SDS011;16120;48.608;9.092;2023-02-15T00:39:02;84.60;;;15.93;;
29026;SDS011;16120;48.608;9.092;2023-02-15T00:42:57;85.97;;;14.63;;
29026;SDS011;16120;48.608;9.092;2023-02-15T00:46:54;84.77;;;16.47;;
29026;SDS011;16120;48.608;9.092;2023-02-15T00:50:49;81.13;;;14.83;;
29026;SDS011;16120;48.608;9.092;2023-02-15T00:54:45;80.73;;;14.20;;
29026;SDS011;16120;48.608;9.092;2023-02-15T00:58:40;87.83;;;15.40;;
29026;SDS011;16120;48.608;9.092;2023-02-15T01:02:36;85.13;;;16.20;;
29026;SDS011;16120;48.608;9.092;2023-02-15T01:06:31;84.27;;;16.00;;
29026;SDS011;16120;48.608;9.092;2023-02-15T01:10:27;86.40;;;17.58;;
29026;SDS011;16120;48.608;9.092;2023-02-15T01:14:23;81.90;;;15.20;;
29026;SDS011;16120;48.608;9.092;2023-02-15T01:18:19;83.73;;;15.07;;
29026;SDS011;16120;48.608;9.092;2023-02-15T01:22:14;84.80;;;15.67;;
29026;SDS011;16120;48.608;9.092;2023-02-15T01:26:10;83.87;;;15.40;;
29026;SDS011;16120;48.608;9.092;2023-02-15T01:30:05;84.03;;;14.73;;
29026;SDS011;16120;48.608;9.092;2023-02-15T01:34:02;85.63;;;15.90;;
29026;SDS011;16120;48.608;9.092;2023-02-15T01:37:57;86.80;;;15.53;;
29026;SDS011;16120;48.608;9.092;2023-02-15T01:41:52;80.03;;;14.53;;
29026;SDS011;16120;48.608;9.092;2023-02-15T01:45:47;87.20;;;15.73;;
29026;SDS011;16120;48.608;9.092;2023-02-15T01:49:44;80.70;;;14.57;;
29026;SDS011;16120;48.608;9.092;2023-02-15T01:53:41;82.63;;;14.80;;
29026;SDS011;16120;48.608;9.092;2023-02-15T01:57:37;85.20;;;15.57;;
29026;SDS011;16120;48.608;9.092;2023-02-15T02:01:33;86.50;;;14.50;;
29026;SDS011;16120;48.608;9.092;2023-02-15T02:05:30;85.80;;;17.50;;
29026;SDS011;16120;48.608;9.092;2023-02-15T02:09:25;82.97;;;15.50;;
29026;SDS011;16120;48.608;9.092;2023-02-15T02:13:21;85.23;;;14.60;;
29026;SDS011;16120;48.608;9.092;2023-02-15T02:17:16;84.53;;;14.93;;
29026;SDS011;16120;48.608;9.092;2023-02-15T02:25:32;85.13;;;16.33;;
29026;SDS011;16120;48.608;9.092;2023-02-15T02:29:42;83.07;;;14.63;;
29026;SDS011;16120;48.608;9.092;2023-02-15T02:33:48;79.50;;;14.23;;
29026;SDS011;16120;48.608;9.092;2023-02-15T02:37:48;80.80;;;14.60;;
29026;SDS011;16120;48.608;9.092;2023-02-15T02:41:50;83.13;;;15.70;;
29026;SDS011;16120;48.608;9.092;2023-02-15T02:45:47;83.53;;;14.33;;
29026;SDS011;16120;48.608;9.092;2023-02-15T02:49:47;86.57;;;15.50;;
29026;SDS011;16120;48.608;9.092;2023-02-15T02:53:42;81.80;;;15.23;;
29026;SDS011;16120;48.608;9.092;2023-02-15T02:57:40;89.22;;;16.83;;
29026;SDS011;16120;48.608;9.092;2023-02-15T03:01:37;81.57;;;14.10;;
29026;SDS011;16120;48.608;9.092;2023-02-15T03:05:35;82.33;;;15.73;;
29026;SDS011;16120;48.608;9.092;2023-02-15T03:09:34;87.67;;;15.17;;
29026;SDS011;16120;48.608;9.092;2023-02-15T03:13:30;84.00;;;14.47;;
29026;SDS011;16120;48.608;9.092;2023-02-15T03:17:27;85.37;;;16.27;;
29026;SDS011;16120;48.608;9.092;2023-02-15T03:21:27;80.50;;;13.03;;
29026;SDS011;16120;48.608;9.092;2023-02-15T03:25:25;79.17;;;13.70;;
29026;SDS011;16120;48.608;9.092;2023-02-15T03:29:24;83.40;;;14.30;;
29026;SDS011;16120;48.608;9.092;2023-02-15T03:33:20;77.07;;;13.80;;
29026;SDS011;16120;48.608;9.092;2023-02-15T03:37:18;79.13;;;13.80;;
29026;SDS011;16120;48.608;9.092;2023-02-15T03:41:15;80.03;;;13.30;;
29026;SDS011;16120;48.608;9.092;2023-02-15T03:45:13;88.60;;;15.47;;
29026;SDS011;16120;48.608;9.092;2023-02-15T03:49:11;82.77;;;14.97;;
29026;SDS011;16120;48.608;9.092;2023-02-15T03:53:11;88.20;;;15.30;;
29026;SDS011;16120;48.608;9.092;2023-02-15T03:57:09;82.60;;;14.90;;
29026;SDS011;16120;48.608;9.092;2023-02-15T04:01:05;95.00;;;15.03;;
29026;SDS011;16120;48.608;9.092;2023-02-15T04:05:06;78.87;;;13.97;;
29026;SDS011;16120;48.608;9.092;2023-02-15T04:09:02;84.30;;;14.95;;
29026;SDS011;16120;48.608;9.092;2023-02-15T04:12:57;79.63;;;14.03;;
29026;SDS011;16120;48.608;9.092;2023-02-15T04:16:53;78.63;;;13.10;;
29026;SDS011;16120;48.608;9.092;2023-02-15T04:20:48;80.68;;;14.98;;
29026;SDS011;16120;48.608;9.092;2023-02-15T04:24:44;81.30;;;14.90;;
29026;SDS011;16120;48.608;9.092;2023-02-15T04:28:39;79.03;;;14.17;;
29026;SDS011;16120;48.608;9.092;2023-02-15T04:32:35;81.15;;;14.57;;
29026;SDS011;16120;48.608;9.092;2023-02-15T04:36:30;84.77;;;16.70;;
29026;SDS011;16120;48.608;9.092;2023-02-15T04:40:27;89.40;;;15.40;;
29026;SDS011;16120;48.608;9.092;2023-02-15T04:44:22;79.83;;;14.27;;
29026;SDS011;16120;48.608;9.092;2023-02-15T04:48:17;82.67;;;13.53;;
29026;SDS011;16120;48.608;9.092;2023-02-15T04:52:12;85.00;;;13.77;;
29026;SDS011;16120;48.608;9.092;2023-02-15T04:56:09;81.10;;;14.60;;
29026;SDS011;16120;48.608;9.092;2023-02-15T05:00:04;80.73;;;13.00;;
29026;SDS011;16120;48.608;9.092;2023-02-15T05:04:00;78.20;;;13.87;;
29026;SDS011;16120;48.608;9.092;2023-02-15T05:07:55;79.43;;;14.32;;
29026;SDS011;16120;48.608;9.092;2023-02-15T05:11:52;84.50;;;15.50;;
29026;SDS011;16120;48.608;9.092;2023-02-15T05:15:47;78.33;;;14.47;;
29026;SDS011;16120;48.608;9.092;2023-02-15T05:19:42;78.83;;;13.70;;
29026;SDS011;16120;48.608;9.092;2023-02-15T05:23:37;84.53;;;15.10;;
29026;SDS011;16120;48.608;9.092;2023-02-15T05:27:34;85.50;;;14.10;;
29026;SDS011;16120;48.608;9.092;2023-02-15T05:31:30;87.27;;;14.17;;
29026;SDS011;16120;48.608;9.092;2023-02-15T05:35:25;83.80;;;14.43;;
29026;SDS011;16120;48.608;9.092;2023-02-15T05:39:20;81.07;;;14.40;;
29026;SDS011;16120;48.608;9.092;2023-02-15T05:43:17;83.10;;;13.70;;
29026;SDS011;16120;48.608;9.092;2023-02-15T05:47:12;89.67;;;14.57;;
29026;SDS011;16120;48.608;9.092;2023-02-15T05:51:08;87.70;;;15.33;;
29026;SDS011;16120;48.608;9.092;2023-02-15T05:55:04;83.87;;;15.70;;
29026;SDS011;16120;48.608;9.092;2023-02-15T05:59:00;81.67;;;14.50;;
29026;SDS011;16120;48.608;9.092;2023-02-15T06:02:56;83.67;;;14.87;;
29026;SDS011;16120;48.608;9.092;2023-02-15T06:06:51;82.60;;;13.93;;
29026;SDS011;16120;48.608;9.092;2023-02-15T06:10:46;80.30;;;14.73;;
29026;SDS011;16120;48.608;9.092;2023-02-15T06:14:42;88.00;;;14.30;;
29026;SDS011;16120;48.608;9.092;2023-02-15T06:18:38;86.00;;;16.17;;
29026;SDS011;16120;48.608;9.092;2023-02-15T06:22:33;81.80;;;14.48;;
29026;SDS011;16120;48.608;9.092;2023-02-15T06:26:28;84.53;;;15.10;;
29026;SDS011;16120;48.608;9.092;2023-02-15T06:30:25;85.72;;;15.77;;
29026;SDS011;16120;48.608;9.092;2023-02-15T06:34:20;90.97;;;16.07;;
29026;SDS011;16120;48.608;9.092;2023-02-15T06:38:16;80.35;;;14.73;;
29026;SDS011;16120;48.608;9.092;2023-02-15T06:42:11;82.40;;;13.13;;
29026;SDS011;16120;48.608;9.092;2023-02-15T06:46:07;87.77;;;14.27;;
29026;SDS011;16120;48.608;9.092;2023-02-15T06:50:03;83.73;;;14.20;;
29026;SDS011;16120;48.608;9.092;2023-02-15T06:53:58;80.43;;;14.37;;
29026;SDS011;16120;48.608;9.092;2023-02-15T06:57:53;80.30;;;13.50;;
29026;SDS011;16120;48.608;9.092;2023-02-15T07:01:50;86.68;;;14.38;;
29026;SDS011;16120;48.608;9.092;2023-02-15T07:05:45;77.83;;;12.90;;
29026;SDS011;16120;48.608;9.092;2023-02-15T07:09:40;82.17;;;14.70;;
29026;SDS011;16120;48.608;9.092;2023-02-15T07:13:36;82.80;;;13.10;;
29026;SDS011;16120;48.608;9.092;2023-02-15T07:17:32;84.15;;;14.68;;
29026;SDS011;16120;48.608;9.092;2023-02-15T07:21:28;89.90;;;13.90;;
29026;SDS011;16120;48.608;9.092;2023-02-15T07:25:24;88.27;;;16.63;;
29026;SDS011;16120;48.608;9.092;2023-02-15T07:29:20;87.87;;;16.50;;
29026;SDS011;16120;48.608;9.092;2023-02-15T07:33:16;87.23;;;17.00;;
29026;SDS011;16120;48.608;9.092;2023-02-15T07:37:11;93.60;;;19.57;;
29026;SDS011;16120;48.608;9.092;2023-02-15T07:41:07;106.13;;;21.05;;
29026;SDS011;16120;48.608;9.092;2023-02-15T07:45:03;90.17;;;19.00;;
29026;SDS011;16120;48.608;9.092;2023-02-15T07:49:00;109.07;;;25.07;;
29026;SDS011;16120;48.608;9.092;2023-02-15T07:52:55;100.23;;;25.10;;
29026;SDS011;16120;48.608;9.092;2023-02-15T07:56:50;95.30;;;21.33;;
29026;SDS011;16120;48.608;9.092;2023-02-15T08:00:45;91.30;;;20.67;;
29026;SDS011;16120;48.608;9.092;2023-02-15T08:04:42;97.93;;;22.80;;
29026;SDS011;16120;48.608;9.092;2023-02-15T08:08:37;105.03;;;24.93;;
29026;SDS011;16120;48.608;9.092;2023-02-15T08:12:32;97.85;;;23.88;;
29026;SDS011;16120;48.608;9.092;2023-02-15T08:16:31;103.20;;;23.03;;
29026;SDS011;16120;48.608;9.092;2023-02-15T08:20:28;111.23;;;24.43;;
29026;SDS011;16120;48.608;9.092;2023-02-15T08:24:24;104.10;;;24.10;;
29026;SDS011;16120;48.608;9.092;2023-02-15T08:28:19;105.23;;;24.13;;
29026;SDS011;16120;48.608;9.092;2023-02-15T08:32:14;112.07;;;25.90;;
29026;SDS011;16120;48.608;9.092;2023-02-15T08:36:11;109.47;;;26.03;;
29026;SDS011;16120;48.608;9.092;2023-02-15T08:40:07;108.20;;;25.70;;
29026;SDS011;16120;48.608;9.092;2023-02-15T08:44:03;107.87;;;26.77;;
29026;SDS011;16120;48.608;9.092;2023-02-15T08:47:59;105.53;;;26.20;;
29026;SDS011;16120;48.608;9.092;2023-02-15T08:51:55;98.87;;;23.50;;
29026;SDS011;16120;48.608;9.092;2023-02-15T08:55:54;104.83;;;24.13;;
29026;SDS011;16120;48.608;9.092;2023-02-15T08:59:50;100.70;;;23.33;;
29026;SDS011;16120;48.608;9.092;2023-02-15T09:03:45;100.73;;;23.30;;
29026;SDS011;16120;48.608;9.092;2023-02-15T09:07:42;104.17;;;22.70;;
29026;SDS011;16120;48.608;9.092;2023-02-15T09:11:38;105.37;;;22.10;;
29026;SDS011;16120;48.608;9.092;2023-02-15T09:15:34;100.40;;;21.87;;
29026;SDS011;16120;48.608;9.092;2023-02-15T09:19:29;93.20;;;20.63;;
29026;SDS011;16120;48.608;9.092;2023-02-15T09:23:31;98.87;;;22.37;;
29026;SDS011;16120;48.608;9.092;2023-02-15T09:27:26;95.60;;;20.90;;
29026;SDS011;16120;48.608;9.092;2023-02-15T09:31:22;98.17;;;19.50;;
29026;SDS011;16120;48.608;9.092;2023-02-15T09:35:17;100.50;;;19.40;;
29026;SDS011;16120;48.608;9.092;2023-02-15T09:39:15;95.17;;;19.00;;
29026;SDS011;16120;48.608;9.092;2023-02-15T09:43:13;90.57;;;18.90;;
29026;SDS011;16120;48.608;9.092;2023-02-15T09:47:17;94.47;;;20.10;;
29026;SDS011;16120;48.608;9.092;2023-02-15T09:51:17;87.97;;;19.00;;
29026;SDS011;16120;48.608;9.092;2023-02-15T09:55:24;89.30;;;18.90;;
29026;SDS011;16120;48.608;9.092;2023-02-15T09:59:26;86.10;;;15.70;;
29026;SDS011;16120;48.608;9.092;2023-02-15T10:03:25;83.53;;;15.10;;
29026;SDS011;16120;48.608;9.092;2023-02-15T10:07:27;80.90;;;11.30;;
29026;SDS011;16120;48.608;9.092;2023-02-15T10:11:27;80.27;;;10.40;;
29026;SDS011;16120;48.608;9.092;2023-02-15T10:15:33;91.80;;;13.97;;
29026;SDS011;16120;48.608;9.092;2023-02-15T10:19:34;78.27;;;10.30;;
29026;SDS011;16120;48.608;9.092;2023-02-15T10:23:38;80.57;;;11.77;;
29026;SDS011;16120;48.608;9.092;2023-02-15T10:27:36;75.80;;;9.60;;
29026;SDS011;16120;48.608;9.092;2023-02-15T10:31:34;80.90;;;10.80;;
29026;SDS011;16120;48.608;9.092;2023-02-15T10:35:34;78.47;;;9.70;;
29026;SDS011;16120;48.608;9.092;2023-02-15T10:39:34;79.60;;;9.80;;
29026;SDS011;16120;48.608;9.092;2023-02-15T10:43:37;77.53;;;8.73;;
29026;SDS011;16120;48.608;9.092;2023-02-15T10:47:47;77.73;;;9.30;;
29026;SDS011;16120;48.608;9.092;2023-02-15T10:51:49;74.40;;;9.27;;
29026;SDS011;16120;48.608;9.092;2023-02-15T10:55:51;77.50;;;9.20;;
29026;SDS011;16120;48.608;9.092;2023-02-15T10:59:53;75.60;;;9.40;;
29026;SDS011;16120;48.608;9.092;2023-02-15T11:03:54;75.80;;;8.37;;
29026;SDS011;16120;48.608;9.092;2023-02-15T11:07:57;75.47;;;8.37;;
29026;SDS011;16120;48.608;9.092;2023-02-15T11:11:53;74.90;;;8.97;;
29026;SDS011;16120;48.608;9.092;2023-02-15T11:15:53;74.97;;;7.90;;
29026;SDS011;16120;48.608;9.092;2023-02-15T11:19:51;74.40;;;8.20;;
29026;SDS011;16120;48.608;9.092;2023-02-15T11:23:47;78.10;;;8.80;;
29026;SDS011;16120;48.608;9.092;2023-02-15T11:27:43;76.50;;;8.57;;
29026;SDS011;16120;48.608;9.092;2023-02-15T11:31:43;74.27;;;8.63;;
29026;SDS011;16120;48.608;9.092;2023-02-15T11:35:42;78.10;;;8.40;;
29026;SDS011;16120;48.608;9.092;2023-02-15T11:39:40;75.87;;;8.23;;
29026;SDS011;16120;48.608;9.092;2023-02-15T11:43:35;73.68;;;7.65;;
29026;SDS011;16120;48.608;9.092;2023-02-15T11:47:34;74.80;;;7.97;;
29026;SDS011;16120;48.608;9.092;2023-02-15T11:51:29;72.50;;;7.47;;
29026;SDS011;16120;48.608;9.092;2023-02-15T11:55:24;72.57;;;7.70;;
29026;SDS011;16120;48.608;9.092;2023-02-15T11:59:24;73.30;;;7.77;;
29026;SDS011;16120;48.608;9.092;2023-02-15T12:03:24;75.57;;;7.43;;
29026;SDS011;16120;48.608;9.092;2023-02-15T12:07:23;78.00;;;11.30;;
29026;SDS011;16120;48.608;9.092;2023-02-15T12:11:19;74.23;;;7.90;;
29026;SDS011;16120;48.608;9.092;2023-02-15T12:15:16;71.60;;;7.37;;
29026;SDS011;16120;48.608;9.092;2023-02-15T12:19:30;76.50;;;8.10;;
29026;SDS011;16120;48.608;9.092;2023-02-15T12:23:26;73.47;;;7.43;;
29026;SDS011;16120;48.608;9.092;2023-02-15T12:27:23;75.70;;;7.13;;
29026;SDS011;16120;48.608;9.092;2023-02-15T12:31:20;72.13;;;7.50;;
29026;SDS011;16120;48.608;9.092;2023-02-15T12:35:19;72.77;;;7.77;;
29026;SDS011;16120;48.608;9.092;2023-02-15T12:39:17;72.70;;;7.60;;
29026;SDS011;16120;48.608;9.092;2023-02-15T12:43:23;72.50;;;7.17;;
29026;SDS011;16120;48.608;9.092;2023-02-15T12:47:19;74.93;;;8.20;;
29026;SDS011;16120;48.608;9.092;2023-02-15T12:51:16;70.70;;;7.10;;
29026;SDS011;16120;48.608;9.092;2023-02-15T12:55:18;72.60;;;7.73;;
29026;SDS011;16120;48.608;9.092;2023-02-15T12:59:13;71.47;;;6.73;;
29026;SDS011;16120;48.608;9.092;2023-02-15T13:03:15;71.60;;;7.30;;
29026;SDS011;16120;48.608;9.092;2023-02-15T13:07:12;72.00;;;7.10;;
29026;SDS011;16120;48.608;9.092;2023-02-15T13:11:08;73.87;;;6.00;;
29026;SDS011;16120;48.608;9.092;2023-02-15T13:15:21;74.13;;;7.43;;
29026;SDS011;16120;48.608;9.092;2023-02-15T13:19:18;73.87;;;7.87;;
29026;SDS011;16120;48.608;9.092;2023-02-15T13:23:20;77.40;;;11.10;;
29026;SDS011;16120;48.608;9.092;2023-02-15T13:27:17;77.90;;;10.97;;
29026;SDS011;16120;48.608;9.092;2023-02-15T13:31:13;78.90;;;12.93;;
29026;SDS011;16120;48.608;9.092;2023-02-15T13:35:10;80.40;;;12.77;;
29026;SDS011;16120;48.608;9.092;2023-02-15T13:39:13;82.40;;;13.97;;
29026;SDS011;16120;48.608;9.092;2023-02-15T13:43:16;84.13;;;12.30;;
29026;SDS011;16120;48.608;9.092;2023-02-15T13:47:17;80.97;;;12.07;;
29026;SDS011;16120;48.608;9.092;2023-02-15T13:51:17;81.03;;;12.13;;
29026;SDS011;16120;48.608;9.092;2023-02-15T13:59:30;77.40;;;11.20;;
29026;SDS011;16120;48.608;9.092;2023-02-15T14:03:39;77.97;;;10.47;;
29026;SDS011;16120;48.608;9.092;2023-02-15T14:07:47;75.50;;;10.53;;
29026;SDS011;16120;48.608;9.092;2023-02-15T14:11:46;74.10;;;9.37;;
29026;SDS011;16120;48.608;9.092;2023-02-15T14:15:47;73.77;;;8.70;;
29026;SDS011;16120;48.608;9.092;2023-02-15T14:19:44;79.50;;;14.23;;
29026;SDS011;16120;48.608;9.092;2023-02-15T14:23:43;77.97;;;11.50;;
29026;SDS011;16120;48.608;9.092;2023-02-15T14:27:45;79.17;;;11.50;;
29026;SDS011;16120;48.608;9.092;2023-02-15T14:31:45;77.87;;;11.33;;
29026;SDS011;16120;48.608;9.092;2023-02-15T14:35:42;83.13;;;11.93;;
29026;SDS011;16120;48.608;9.092;2023-02-15T14:39:41;79.20;;;11.67;;
29026;SDS011;16120;48.608;9.092;2023-02-15T14:43:42;78.77;;;12.50;;
29026;SDS011;16120;48.608;9.092;2023-02-15T14:47:42;79.20;;;12.30;;
29026;SDS011;16120;48.608;9.092;2023-02-15T14:51:58;77.47;;;9.73;;
29026;SDS011;16120;48.608;9.092;2023-02-15T14:56:05;74.97;;;9.03;;
29026;SDS011;16120;48.608;9.092;2023-02-15T15:00:00;76.10;;;9.73;;
29026;SDS011;16120;48.608;9.092;2023-02-15T15:03:58;75.10;;;9.77;;
29026;SDS011;16120;48.608;9.092;2023-02-15T15:07:55;75.90;;;9.70;;
29026;SDS011;16120;48.608;9.092;2023-02-15T15:11:52;76.50;;;10.00;;
29026;SDS011;16120;48.608;9.092;2023-02-15T15:15:48;79.90;;;9.63;;
29026;SDS011;16120;48.608;9.092;2023-02-15T15:19:58;73.70;;;9.00;;
29026;SDS011;16120;48.608;9.092;2023-02-15T15:23:54;73.80;;;8.33;;
29026;SDS011;16120;48.608;9.092;2023-02-15T15:27:50;72.90;;;8.33;;
29026;SDS011;16120;48.608;9.092;2023-02-15T15:31:47;77.80;;;10.90;;
29026;SDS011;16120;48.608;9.092;2023-02-15T15:35:50;77.80;;;10.47;;
29026;SDS011;16120;48.608;9.092;2023-02-15T15:39:58;76.70;;;10.30;;
29026;SDS011;16120;48.608;9.092;2023-02-15T15:44:01;76.13;;;10.50;;
29026;SDS011;16120;48.608;9.092;2023-02-15T15:48:03;74.87;;;10.57;;
29026;SDS011;16120;48.608;9.092;2023-02-15T15:52:08;78.03;;;10.80;;
29026;SDS011;16120;48.608;9.092;2023-02-15T15:56:06;76.30;;;10.30;;
29026;SDS011;16120;48.608;9.092;2023-02-15T16:00:03;76.13;;;9.70;;
29026;SDS011;16120;48.608;9.092;2023-02-15T16:04:00;91.70;;;9.70;;
29026;SDS011;16120;48.608;9.092;2023-02-15T16:07:57;85.03;;;9.53;;
29026;SDS011;16120;48.608;9.092;2023-02-15T16:11:52;76.90;;;8.60;;
29026;SDS011;16120;48.608;9.092;2023-02-15T16:15:49;76.70;;;9.47;;
29026;SDS011;16120;48.608;9.092;2023-02-15T16:19:45;75.40;;;9.03;;
29026;SDS011;16120;48.608;9.092;2023-02-15T16:23:54;76.97;;;9.45;;
29026;SDS011;16120;48.608;9.092;2023-02-15T16:27:52;76.40;;;9.20;;
29026;SDS011;16120;48.608;9.092;2023-02-15T16:31:56;74.50;;;8.40;;
29026;SDS011;16120;48.608;9.092;2023-02-15T16:35:55;74.83;;;8.80;;
29026;SDS011;16120;48.608;9.092;2023-02-15T16:39:52;74.80;;;8.73;;
29026;SDS011;16120;48.608;9.092;2023-02-15T16:43:48;89.03;;;9.37;;
29026;SDS011;16120;48.608;9.092;2023-02-15T16:47:44;80.13;;;8.30;;
29026;SDS011;16120;48.608;9.092;2023-02-15T16:51:39;73.10;;;7.53;;
29026;SDS011;16120;48.608;9.092;2023-02-15T16:55:38;74.80;;;7.13;;
29026;SDS011;16120;48.608;9.092;2023-02-15T16:59:35;77.43;;;7.63;;
29026;SDS011;16120;48.608;9.092;2023-02-15T17:03:31;72.50;;;7.43;;
29026;SDS011;16120;48.608;9.092;2023-02-15T17:07:26;78.90;;;8.30;;
29026;SDS011;16120;48.608;9.092;2023-02-15T17:11:32;82.53;;;8.90;;
29026;SDS011;16120;48.608;9.092;2023-02-15T17:15:29;77.97;;;8.73;;
29026;SDS011;16120;48.608;9.092;2023-02-15T17:19:25;74.77;;;7.50;;
29026;SDS011;16120;48.608;9.092;2023-02-15T17:23:22;72.10;;;7.07;;
29026;SDS011;16120;48.608;9.092;2023-02-15T17:27:22;72.10;;;7.00;;
29026;SDS011;16120;48.608;9.092;2023-02-15T17:31:19;77.30;;;8.40;;
29026;SDS011;16120;48.608;9.092;2023-02-15T17:35:16;81.77;;;8.43;;
29026;SDS011;16120;48.608;9.092;2023-02-15T17:39:19;78.00;;;7.60;;
29026;SDS011;16120;48.608;9.092;2023-02-15T17:43:15;74.47;;;8.00;;
29026;SDS011;16120;48.608;9.092;2023-02-15T17:47:11;72.57;;;7.80;;
29026;SDS011;16120;48.608;9.092;2023-02-15T17:51:10;73.30;;;8.20;;
29026;SDS011;16120;48.608;9.092;2023-02-15T17:55:07;77.37;;;8.90;;
29026;SDS011;16120;48.608;9.092;2023-02-15T17:59:08;77.80;;;9.10;;
29026;SDS011;16120;48.608;9.092;2023-02-15T18:03:03;77.80;;;9.80;;
29026;SDS011;16120;48.608;9.092;2023-02-15T18:06:58;73.50;;;9.33;;
29026;SDS011;16120;48.608;9.092;2023-02-15T18:10:54;73.47;;;8.60;;
29026;SDS011;16120;48.608;9.092;2023-02-15T18:14:50;83.00;;;9.00;;
29026;SDS011;16120;48.608;9.092;2023-02-15T18:18:46;75.10;;;8.70;;
29026;SDS011;16120;48.608;9.092;2023-02-15T18:22:41;74.37;;;8.93;;
29026;SDS011;16120;48.608;9.092;2023-02-15T18:26:36;75.27;;;9.00;;
29026;SDS011;16120;48.608;9.092;2023-02-15T18:30:33;78.40;;;9.23;;
29026;SDS011;16120;48.608;9.092;2023-02-15T18:34:30;77.00;;;9.60;;
29026;SDS011;16120;48.608;9.092;2023-02-15T18:38:26;75.27;;;9.00;;
29026;SDS011;16120;48.608;9.092;2023-02-15T18:42:21;73.93;;;9.33;;
29026;SDS011;16120;48.608;9.092;2023-02-15T18:46:18;81.00;;;12.17;;
29026;SDS011;16120;48.608;9.092;2023-02-15T18:50:14;77.03;;;10.90;;
29026;SDS011;16120;48.608;9.092;2023-02-15T18:54:16;75.80;;;9.43;;
29026;SDS011;16120;48.608;9.092;2023-02-15T18:58:14;76.03;;;9.50;;
29026;SDS011;16120;48.608;9.092;2023-02-15T19:02:11;79.43;;;9.57;;
29026;SDS011;16120;48.608;9.092;2023-02-15T19:06:07;78.20;;;10.47;;
29026;SDS011;16120;48.608;9.092;2023-02-15T19:10:04;82.50;;;9.70;;
29026;SDS011;16120;48.608;9.092;2023-02-15T19:14:01;79.23;;;10.20;;
29026;SDS011;16120;48.608;9.092;2023-02-15T19:17:58;83.50;;;10.47;;
29026;SDS011;16120;48.608;9.092;2023-02-15T19:21:53;81.33;;;12.20;;
29026;SDS011;16120;48.608;9.092;2023-02-15T19:25:49;84.87;;;12.77;;
29026;SDS011;16120;48.608;9.092;2023-02-15T19:29:46;84.43;;;13.07;;
29026;SDS011;16120;48.608;9.092;2023-02-15T19:33:42;83.10;;;11.83;;
29026;SDS011;16120;48.608;9.092;2023-02-15T19:37:38;80.90;;;10.73;;
29026;SDS011;16120;48.608;9.092;2023-02-15T19:41:34;80.37;;;10.30;;
29026;SDS011;16120;48.608;9.092;2023-02-15T19:45:30;76.07;;;10.10;;
29026;SDS011;16120;48.608;9.092;2023-02-15T19:49:27;74.83;;;10.50;;
29026;SDS011;16120;48.608;9.092;2023-02-15T19:53:23;83.10;;;11.27;;
29026;SDS011;16120;48.608;9.092;2023-02-15T19:57:18;75.50;;;10.13;;
29026;SDS011;16120;48.608;9.092;2023-02-15T20:01:14;75.93;;;10.00;;
29026;SDS011;16120;48.608;9.092;2023-02-15T20:05:10;81.53;;;11.70;;
29026;SDS011;16120;48.608;9.092;2023-02-15T20:09:05;75.87;;;10.53;;
29026;SDS011;16120;48.608;9.092;2023-02-15T20:13:01;82.73;;;13.67;;
29026;SDS011;16120;48.608;9.092;2023-02-15T20:16:56;77.33;;;10.20;;
29026;SDS011;16120;48.608;9.092;2023-02-15T20:20:53;82.77;;;10.80;;
29026;SDS011;16120;48.608;9.092;2023-02-15T20:24:49;80.87;;;11.20;;
29026;SDS011;16120;48.608;9.092;2023-02-15T20:28:44;77.17;;;10.67;;
29026;SDS011;16120;48.608;9.092;2023-02-15T20:32:39;76.37;;;10.53;;
29026;SDS011;16120;48.608;9.092;2023-02-15T20:36:36;81.03;;;11.00;;
29026;SDS011;16120;48.608;9.092;2023-02-15T20:40:32;82.33;;;11.73;;
29026;SDS011;16120;48.608;9.092;2023-02-15T20:44:29;79.40;;;11.80;;
29026;SDS011;16120;48.608;9.092;2023-02-15T20:48:25;83.03;;;12.30;;
29026;SDS011;16120;48.608;9.092;2023-02-15T20:52:22;79.10;;;11.02;;
29026;SDS011;16120;48.608;9.092;2023-02-15T20:56:18;80.10;;;10.50;;
29026;SDS011;16120;48.608;9.092;2023-02-15T21:00:15;85.23;;;11.47;;
29026;SDS011;16120;48.608;9.092;2023-02-15T21:04:12;78.03;;;10.90;;
29026;SDS011;16120;48.608;9.092;2023-02-15T21:08:12;84.40;;;12.80;;
29026;SDS011;16120;48.608;9.092;2023-02-15T21:12:08;82.67;;;10.10;;
29026;SDS011;16120;48.608;9.092;2023-02-15T21:16:05;80.10;;;11.40;;
29026;SDS011;16120;48.608;9.092;2023-02-15T21:20:01;79.70;;;11.13;;
29026;SDS011;16120;48.608;9.092;2023-02-15T21:23:57;73.50;;;9.93;;
29026;SDS011;16120;48.608;9.092;2023-02-15T21:27:52;76.70;;;11.27;;
29026;SDS011;16120;48.608;9.092;2023-02-15T21:31:48;79.43;;;10.43;;
29026;SDS011;16120;48.608;9.092;2023-02-15T21:35:43;81.27;;;11.20;;
29026;SDS011;16120;48.608;9.092;2023-02-15T21:39:41;75.47;;;10.90;;
29026;SDS011;16120;48.608;9.092;2023-02-15T21:43:36;76.70;;;11.00;;
29026;SDS011;16120;48.608;9.092;2023-02-15T21:47:32;78.57;;;12.10;;
29026;SDS011;16120;48.608;9.092;2023-02-15T21:51:27;82.00;;;12.10;;
29026;SDS011;16120;48.608;9.092;2023-02-15T21:55:24;81.40;;;12.87;;
29026;SDS011;16120;48.608;9.092;2023-02-15T21:59:19;86.27;;;14.70;;
29026;SDS011;16120;48.608;9.092;2023-02-15T22:03:14;88.63;;;16.80;;
29026;SDS011;16120;48.608;9.092;2023-02-15T22:07:10;89.47;;;16.93;;
29026;SDS011;16120;48.608;9.092;2023-02-15T22:11:12;91.10;;;18.47;;
29026;SDS011;16120;48.608;9.092;2023-02-15T22:15:11;77.40;;;12.17;;
29026;SDS011;16120;48.608;9.092;2023-02-15T22:19:11;79.87;;;12.70;;
29026;SDS011;16120;48.608;9.092;2023-02-15T22:23:06;82.32;;;11.88;;
29026;SDS011;16120;48.608;9.092;2023-02-15T22:27:02;75.43;;;10.50;;
29026;SDS011;16120;48.608;9.092;2023-02-15T22:30:58;80.23;;;11.50;;
29026;SDS011;16120;48.608;9.092;2023-02-15T22:34:53;78.57;;;11.50;;
29026;SDS011;16120;48.608;9.092;2023-02-15T22:38:48;76.00;;;9.90;;
29026;SDS011;16120;48.608;9.092;2023-02-15T22:42:46;75.57;;;10.50;;
29026;SDS011;16120;48.608;9.092;2023-02-15T22:46:42;74.47;;;11.00;;
29026;SDS011;16120;48.608;9.092;2023-02-15T22:50:37;76.90;;;11.40;;
29026;SDS011;16120;48.608;9.092;2023-02-15T22:54:33;76.47;;;11.03;;
29026;SDS011;16120;48.608;9.092;2023-02-15T22:58:29;78.17;;;11.60;;
29026;SDS011;16120;48.608;9.092;2023-02-15T23:02:24;75.17;;;10.20;;
29026;SDS011;16120;48.608;9.092;2023-02-15T23:06:20;78.43;;;11.80;;
29026;SDS011;16120;48.608;9.092;2023-02-15T23:10:15;73.27;;;11.00;;
29026;SDS011;16120;48.608;9.092;2023-02-15T23:14:18;78.97;;;11.60;;
29026;SDS011;16120;48.608;9.092;2023-02-15T23:18:18;77.13;;;11.30;;
29026;SDS011;16120;48.608;9.092;2023-02-15T23:22:13;77.13;;;11.30;;